sensor_id;sensor_type;location;lat;lon;timestamp;P1;durP1;ratioP1;P2;durP2;ratioP2
24873;SDS011;12945;42.648;23.370;2023-06-10T00:02:08;12.23;;;8.20;;
24873;SDS011;12945;42.648;23.370;2023-06-10T00:04:34;12.43;;;7.47;;
24873;SDS011;12945;42.648;23.370;2023-06-10T00:07:01;13.95;;;8.95;;
24873;SDS011;12945;42.648;23.370;2023-06-10T00:09:26;14.00;;;7.88;;
24873;SDS011;12945;42.648;23.370;2023-06-10T00:11:53;22.40;;;8.55;;
24873;SDS011;12945;42.648;23.370;2023-06-10T00:14:18;15.18;;;8.82;;
24873;SDS011;12945;42.648;23.370;2023-06-10T00:16:43;13.00;;;8.55;;
24873;SDS011;12945;42.648;23.370;2023-06-10T00:19:10;13.98;;;9.70;;
24873;SDS011;12945;42.648;23.370;2023-06-10T00:21:38;14.57;;;8.45;;
24873;SDS011;12945;42.648;23.370;2023-06-10T00:24:05;18.27;;;9.80;;
24873;SDS011;12945;42.648;23.370;2023-06-10T00:26:31;14.63;;;9.50;;
24873;SDS011;12945;42.648;23.370;2023-06-10T00:28:56;11.75;;;6.32;;
24873;SDS011;12945;42.648;23.370;2023-06-10T00:31:22;11.82;;;6.55;;
24873;SDS011;12945;42.648;23.370;2023-06-10T00:33:47;15.40;;;8.05;;
24873;SDS011;12945;42.648;23.370;2023-06-10T00:36:12;10.38;;;6.70;;
24873;SDS011;12945;42.648;23.370;2023-06-10T00:38:38;12.57;;;7.80;;
24873;SDS011;12945;42.648;23.370;2023-06-10T00:41:05;11.32;;;8.18;;
24873;SDS011;12945;42.648;23.370;2023-06-10T00:43:30;14.48;;;8.43;;
24873;SDS011;12945;42.648;23.370;2023-06-10T00:45:56;11.57;;;6.68;;
24873;SDS011;12945;42.648;23.370;2023-06-10T00:48:22;13.02;;;8.02;;
24873;SDS011;12945;42.648;23.370;2023-06-10T00:50:48;15.98;;;8.88;;
24873;SDS011;12945;42.648;23.370;2023-06-10T00:53:13;7.93;;;6.53;;
24873;SDS011;12945;42.648;23.370;2023-06-10T00:55:40;14.70;;;8.90;;
24873;SDS011;12945;42.648;23.370;2023-06-10T00:58:05;17.25;;;10.43;;
24873;SDS011;12945;42.648;23.370;2023-06-10T01:00:31;20.13;;;10.38;;
24873;SDS011;12945;42.648;23.370;2023-06-10T01:02:56;14.65;;;11.27;;
24873;SDS011;12945;42.648;23.370;2023-06-10T01:05:22;18.75;;;12.90;;
24873;SDS011;12945;42.648;23.370;2023-06-10T01:07:50;20.40;;;12.30;;
24873;SDS011;12945;42.648;23.370;2023-06-10T01:12:45;17.63;;;13.07;;
24873;SDS011;12945;42.648;23.370;2023-06-10T01:15:16;22.50;;;13.82;;
24873;SDS011;12945;42.648;23.370;2023-06-10T01:17:54;20.60;;;13.93;;
24873;SDS011;12945;42.648;23.370;2023-06-10T01:20:20;16.13;;;11.88;;
24873;SDS011;12945;42.648;23.370;2023-06-10T01:22:45;14.90;;;11.77;;
24873;SDS011;12945;42.648;23.370;2023-06-10T01:25:11;16.58;;;10.52;;
24873;SDS011;12945;42.648;23.370;2023-06-10T01:27:36;16.20;;;10.95;;
24873;SDS011;12945;42.648;23.370;2023-06-10T01:30:06;16.88;;;11.93;;
24873;SDS011;12945;42.648;23.370;2023-06-10T01:32:37;14.32;;;11.75;;
24873;SDS011;12945;42.648;23.370;2023-06-10T01:35:02;16.23;;;11.60;;
24873;SDS011;12945;42.648;23.370;2023-06-10T01:37:29;16.90;;;11.82;;
24873;SDS011;12945;42.648;23.370;2023-06-10T01:39:57;15.80;;;11.60;;
24873;SDS011;12945;42.648;23.370;2023-06-10T01:42:23;14.55;;;11.52;;
24873;SDS011;12945;42.648;23.370;2023-06-10T01:44:49;17.00;;;12.30;;
24873;SDS011;12945;42.648;23.370;2023-06-10T01:47:14;14.52;;;11.27;;
24873;SDS011;12945;42.648;23.370;2023-06-10T01:49:40;17.15;;;12.63;;
24873;SDS011;12945;42.648;23.370;2023-06-10T01:52:05;18.52;;;12.30;;
24873;SDS011;12945;42.648;23.370;2023-06-10T01:54:31;17.05;;;12.52;;
24873;SDS011;12945;42.648;23.370;2023-06-10T01:56:56;21.65;;;12.02;;
24873;SDS011;12945;42.648;23.370;2023-06-10T01:59:21;15.85;;;11.32;;
24873;SDS011;12945;42.648;23.370;2023-06-10T02:01:47;18.23;;;11.55;;
24873;SDS011;12945;42.648;23.370;2023-06-10T02:04:12;17.23;;;11.00;;
24873;SDS011;12945;42.648;23.370;2023-06-10T02:06:37;20.13;;;11.98;;
24873;SDS011;12945;42.648;23.370;2023-06-10T02:09:03;13.50;;;10.93;;
24873;SDS011;12945;42.648;23.370;2023-06-10T02:11:28;16.73;;;11.13;;
24873;SDS011;12945;42.648;23.370;2023-06-10T02:13:54;15.52;;;10.68;;
24873;SDS011;12945;42.648;23.370;2023-06-10T02:16:20;17.25;;;11.38;;
24873;SDS011;12945;42.648;23.370;2023-06-10T02:18:46;12.77;;;10.35;;
24873;SDS011;12945;42.648;23.370;2023-06-10T02:21:14;16.08;;;10.48;;
24873;SDS011;12945;42.648;23.370;2023-06-10T02:23:39;26.20;;;12.40;;
24873;SDS011;12945;42.648;23.370;2023-06-10T02:26:05;17.95;;;11.93;;
24873;SDS011;12945;42.648;23.370;2023-06-10T02:28:30;16.40;;;12.00;;
24873;SDS011;12945;42.648;23.370;2023-06-10T02:30:56;14.93;;;12.40;;
24873;SDS011;12945;42.648;23.370;2023-06-10T02:33:22;17.95;;;12.10;;
24873;SDS011;12945;42.648;23.370;2023-06-10T02:35:48;15.88;;;11.68;;
24873;SDS011;12945;42.648;23.370;2023-06-10T02:38:13;16.95;;;11.25;;
24873;SDS011;12945;42.648;23.370;2023-06-10T02:40:38;18.00;;;10.82;;
24873;SDS011;12945;42.648;23.370;2023-06-10T02:43:04;15.40;;;11.45;;
24873;SDS011;12945;42.648;23.370;2023-06-10T02:45:29;18.23;;;12.75;;
24873;SDS011;12945;42.648;23.370;2023-06-10T02:47:54;15.77;;;12.65;;
24873;SDS011;12945;42.648;23.370;2023-06-10T02:50:20;15.40;;;11.75;;
24873;SDS011;12945;42.648;23.370;2023-06-10T02:52:45;17.92;;;10.57;;
24873;SDS011;12945;42.648;23.370;2023-06-10T02:55:10;15.00;;;11.02;;
24873;SDS011;12945;42.648;23.370;2023-06-10T02:57:36;21.90;;;11.70;;
24873;SDS011;12945;42.648;23.370;2023-06-10T03:00:01;16.05;;;11.27;;
24873;SDS011;12945;42.648;23.370;2023-06-10T03:02:29;21.80;;;11.55;;
24873;SDS011;12945;42.648;23.370;2023-06-10T03:04:55;16.08;;;10.55;;
24873;SDS011;12945;42.648;23.370;2023-06-10T03:07:20;15.63;;;10.75;;
24873;SDS011;12945;42.648;23.370;2023-06-10T03:09:46;17.98;;;9.75;;
24873;SDS011;12945;42.648;23.370;2023-06-10T03:12:11;17.95;;;12.10;;
24873;SDS011;12945;42.648;23.370;2023-06-10T03:14:36;20.40;;;11.38;;
24873;SDS011;12945;42.648;23.370;2023-06-10T03:17:03;21.25;;;11.55;;
24873;SDS011;12945;42.648;23.370;2023-06-10T03:19:29;16.42;;;10.68;;
24873;SDS011;12945;42.648;23.370;2023-06-10T03:22:09;18.27;;;10.82;;
24873;SDS011;12945;42.648;23.370;2023-06-10T03:24:35;19.80;;;10.50;;
24873;SDS011;12945;42.648;23.370;2023-06-10T03:27:01;12.52;;;10.43;;
24873;SDS011;12945;42.648;23.370;2023-06-10T03:29:27;15.63;;;10.95;;
24873;SDS011;12945;42.648;23.370;2023-06-10T03:31:52;19.08;;;12.05;;
24873;SDS011;12945;42.648;23.370;2023-06-10T03:34:18;19.88;;;11.55;;
24873;SDS011;12945;42.648;23.370;2023-06-10T03:36:43;18.80;;;11.15;;
24873;SDS011;12945;42.648;23.370;2023-06-10T03:39:10;20.05;;;11.63;;
24873;SDS011;12945;42.648;23.370;2023-06-10T03:41:35;17.67;;;11.07;;
24873;SDS011;12945;42.648;23.370;2023-06-10T03:44:00;21.13;;;11.60;;
24873;SDS011;12945;42.648;23.370;2023-06-10T03:46:25;19.52;;;12.60;;
24873;SDS011;12945;42.648;23.370;2023-06-10T03:48:51;19.55;;;12.20;;
24873;SDS011;12945;42.648;23.370;2023-06-10T03:51:16;19.90;;;12.38;;
24873;SDS011;12945;42.648;23.370;2023-06-10T03:53:41;18.02;;;12.43;;
24873;SDS011;12945;42.648;23.370;2023-06-10T03:56:07;20.75;;;12.30;;
24873;SDS011;12945;42.648;23.370;2023-06-10T03:58:32;24.00;;;12.77;;
24873;SDS011;12945;42.648;23.370;2023-06-10T04:00:58;16.45;;;12.02;;
24873;SDS011;12945;42.648;23.370;2023-06-10T04:03:23;17.50;;;11.85;;
24873;SDS011;12945;42.648;23.370;2023-06-10T04:05:49;22.83;;;12.32;;
24873;SDS011;12945;42.648;23.370;2023-06-10T04:08:15;19.27;;;12.35;;
24873;SDS011;12945;42.648;23.370;2023-06-10T04:10:41;17.98;;;12.38;;
24873;SDS011;12945;42.648;23.370;2023-06-10T04:13:06;17.77;;;13.25;;
24873;SDS011;12945;42.648;23.370;2023-06-10T04:15:32;21.42;;;13.15;;
24873;SDS011;12945;42.648;23.370;2023-06-10T04:17:58;18.45;;;12.45;;
24873;SDS011;12945;42.648;23.370;2023-06-10T04:20:24;22.13;;;12.50;;
24873;SDS011;12945;42.648;23.370;2023-06-10T04:22:49;21.20;;;14.45;;
24873;SDS011;12945;42.648;23.370;2023-06-10T04:25:14;21.58;;;14.73;;
24873;SDS011;12945;42.648;23.370;2023-06-10T04:27:40;20.40;;;13.73;;
24873;SDS011;12945;42.648;23.370;2023-06-10T04:30:05;17.40;;;13.75;;
24873;SDS011;12945;42.648;23.370;2023-06-10T04:32:30;19.00;;;14.00;;
24873;SDS011;12945;42.648;23.370;2023-06-10T04:34:56;19.52;;;14.48;;
24873;SDS011;12945;42.648;23.370;2023-06-10T04:37:24;18.23;;;14.45;;
24873;SDS011;12945;42.648;23.370;2023-06-10T04:39:52;20.50;;;14.18;;
24873;SDS011;12945;42.648;23.370;2023-06-10T04:42:17;16.83;;;13.63;;
24873;SDS011;12945;42.648;23.370;2023-06-10T04:44:43;18.85;;;13.82;;
24873;SDS011;12945;42.648;23.370;2023-06-10T04:47:08;18.70;;;13.75;;
24873;SDS011;12945;42.648;23.370;2023-06-10T04:49:36;18.92;;;13.43;;
24873;SDS011;12945;42.648;23.370;2023-06-10T04:52:02;19.70;;;12.65;;
24873;SDS011;12945;42.648;23.370;2023-06-10T04:54:29;19.33;;;13.07;;
24873;SDS011;12945;42.648;23.370;2023-06-10T04:56:54;17.42;;;11.52;;
24873;SDS011;12945;42.648;23.370;2023-06-10T04:59:20;15.63;;;11.60;;
24873;SDS011;12945;42.648;23.370;2023-06-10T05:01:46;15.82;;;11.95;;
24873;SDS011;12945;42.648;23.370;2023-06-10T05:04:11;17.33;;;12.20;;
24873;SDS011;12945;42.648;23.370;2023-06-10T05:06:36;18.98;;;12.73;;
24873;SDS011;12945;42.648;23.370;2023-06-10T05:09:02;18.73;;;12.73;;
24873;SDS011;12945;42.648;23.370;2023-06-10T05:11:27;16.83;;;12.68;;
24873;SDS011;12945;42.648;23.370;2023-06-10T05:13:53;18.95;;;12.18;;
24873;SDS011;12945;42.648;23.370;2023-06-10T05:16:18;19.25;;;12.80;;
24873;SDS011;12945;42.648;23.370;2023-06-10T05:18:43;20.92;;;13.38;;
24873;SDS011;12945;42.648;23.370;2023-06-10T05:21:09;20.52;;;13.52;;
24873;SDS011;12945;42.648;23.370;2023-06-10T05:23:34;17.25;;;13.07;;
24873;SDS011;12945;42.648;23.370;2023-06-10T05:25:59;20.55;;;12.70;;
24873;SDS011;12945;42.648;23.370;2023-06-10T05:28:25;16.95;;;13.20;;
24873;SDS011;12945;42.648;23.370;2023-06-10T05:30:51;17.98;;;13.18;;
24873;SDS011;12945;42.648;23.370;2023-06-10T05:33:16;17.92;;;13.57;;
24873;SDS011;12945;42.648;23.370;2023-06-10T05:35:41;22.02;;;14.00;;
24873;SDS011;12945;42.648;23.370;2023-06-10T05:38:07;21.05;;;13.93;;
24873;SDS011;12945;42.648;23.370;2023-06-10T05:40:32;23.23;;;13.68;;
24873;SDS011;12945;42.648;23.370;2023-06-10T05:42:57;23.30;;;14.25;;
24873;SDS011;12945;42.648;23.370;2023-06-10T05:45:23;20.17;;;14.13;;
24873;SDS011;12945;42.648;23.370;2023-06-10T05:47:48;19.63;;;13.80;;
24873;SDS011;12945;42.648;23.370;2023-06-10T05:50:13;22.00;;;13.90;;
24873;SDS011;12945;42.648;23.370;2023-06-10T05:52:39;20.88;;;14.00;;
24873;SDS011;12945;42.648;23.370;2023-06-10T05:55:07;19.85;;;13.82;;
24873;SDS011;12945;42.648;23.370;2023-06-10T05:57:32;18.88;;;14.75;;
24873;SDS011;12945;42.648;23.370;2023-06-10T05:59:59;23.60;;;15.18;;
24873;SDS011;12945;42.648;23.370;2023-06-10T06:02:24;19.75;;;16.38;;
24873;SDS011;12945;42.648;23.370;2023-06-10T06:04:50;23.23;;;16.27;;
24873;SDS011;12945;42.648;23.370;2023-06-10T06:07:15;19.27;;;15.55;;
24873;SDS011;12945;42.648;23.370;2023-06-10T06:09:40;23.08;;;16.23;;
24873;SDS011;12945;42.648;23.370;2023-06-10T06:12:06;24.95;;;15.77;;
24873;SDS011;12945;42.648;23.370;2023-06-10T06:14:32;18.80;;;16.17;;
24873;SDS011;12945;42.648;23.370;2023-06-10T06:17:01;25.65;;;16.58;;
24873;SDS011;12945;42.648;23.370;2023-06-10T06:19:26;22.02;;;16.15;;
24873;SDS011;12945;42.648;23.370;2023-06-10T06:21:52;22.40;;;16.20;;
24873;SDS011;12945;42.648;23.370;2023-06-10T06:24:17;22.02;;;15.75;;
24873;SDS011;12945;42.648;23.370;2023-06-10T06:26:42;22.02;;;16.35;;
24873;SDS011;12945;42.648;23.370;2023-06-10T06:29:08;24.20;;;18.42;;
24873;SDS011;12945;42.648;23.370;2023-06-10T06:31:33;26.50;;;17.02;;
24873;SDS011;12945;42.648;23.370;2023-06-10T06:33:58;29.85;;;16.35;;
24873;SDS011;12945;42.648;23.370;2023-06-10T06:36:24;24.52;;;16.58;;
24873;SDS011;12945;42.648;23.370;2023-06-10T06:38:49;24.25;;;16.70;;
24873;SDS011;12945;42.648;23.370;2023-06-10T06:41:15;27.40;;;16.83;;
24873;SDS011;12945;42.648;23.370;2023-06-10T06:43:40;24.95;;;16.13;;
24873;SDS011;12945;42.648;23.370;2023-06-10T06:46:07;23.60;;;15.85;;
24873;SDS011;12945;42.648;23.370;2023-06-10T06:48:32;26.80;;;16.10;;
24873;SDS011;12945;42.648;23.370;2023-06-10T06:50:58;28.55;;;15.95;;
24873;SDS011;12945;42.648;23.370;2023-06-10T06:53:23;23.95;;;13.85;;
24873;SDS011;12945;42.648;23.370;2023-06-10T06:55:48;21.98;;;14.27;;
24873;SDS011;12945;42.648;23.370;2023-06-10T06:58:14;20.15;;;11.50;;
24873;SDS011;12945;42.648;23.370;2023-06-10T07:00:39;20.67;;;11.32;;
24873;SDS011;12945;42.648;23.370;2023-06-10T07:03:05;17.25;;;11.40;;
24873;SDS011;12945;42.648;23.370;2023-06-10T07:05:30;16.60;;;10.73;;
24873;SDS011;12945;42.648;23.370;2023-06-10T07:07:56;17.02;;;9.25;;
24873;SDS011;12945;42.648;23.370;2023-06-10T07:10:24;15.90;;;9.73;;
24873;SDS011;12945;42.648;23.370;2023-06-10T07:12:50;14.85;;;9.15;;
24873;SDS011;12945;42.648;23.370;2023-06-10T07:15:15;19.85;;;9.45;;
24873;SDS011;12945;42.648;23.370;2023-06-10T07:17:41;14.38;;;9.73;;
24873;SDS011;12945;42.648;23.370;2023-06-10T07:20:07;17.17;;;9.20;;
24873;SDS011;12945;42.648;23.370;2023-06-10T07:22:32;18.75;;;9.82;;
24873;SDS011;12945;42.648;23.370;2023-06-10T07:24:57;11.98;;;8.90;;
24873;SDS011;12945;42.648;23.370;2023-06-10T07:27:23;13.68;;;8.35;;
24873;SDS011;12945;42.648;23.370;2023-06-10T07:29:48;14.85;;;8.18;;
24873;SDS011;12945;42.648;23.370;2023-06-10T07:32:14;13.90;;;7.00;;
24873;SDS011;12945;42.648;23.370;2023-06-10T07:34:39;12.55;;;6.88;;
24873;SDS011;12945;42.648;23.370;2023-06-10T07:37:05;12.02;;;6.25;;
24873;SDS011;12945;42.648;23.370;2023-06-10T07:39:30;10.68;;;6.45;;
24873;SDS011;12945;42.648;23.370;2023-06-10T07:41:55;17.70;;;6.55;;
24873;SDS011;12945;42.648;23.370;2023-06-10T07:44:22;11.98;;;6.18;;
24873;SDS011;12945;42.648;23.370;2023-06-10T07:46:48;9.38;;;6.13;;
24873;SDS011;12945;42.648;23.370;2023-06-10T07:49:13;20.38;;;6.75;;
24873;SDS011;12945;42.648;23.370;2023-06-10T07:51:39;11.60;;;6.55;;
24873;SDS011;12945;42.648;23.370;2023-06-10T07:54:04;11.10;;;6.75;;
24873;SDS011;12945;42.648;23.370;2023-06-10T07:56:30;8.73;;;5.95;;
24873;SDS011;12945;42.648;23.370;2023-06-10T07:58:56;14.15;;;6.18;;
24873;SDS011;12945;42.648;23.370;2023-06-10T08:01:22;17.40;;;7.63;;
24873;SDS011;12945;42.648;23.370;2023-06-10T08:03:47;12.55;;;7.47;;
24873;SDS011;12945;42.648;23.370;2023-06-10T08:06:13;15.95;;;7.50;;
24873;SDS011;12945;42.648;23.370;2023-06-10T08:08:38;16.35;;;7.18;;
24873;SDS011;12945;42.648;23.370;2023-06-10T08:11:10;15.52;;;8.00;;
24873;SDS011;12945;42.648;23.370;2023-06-10T08:13:35;10.27;;;6.55;;
24873;SDS011;12945;42.648;23.370;2023-06-10T08:16:01;9.68;;;5.80;;
24873;SDS011;12945;42.648;23.370;2023-06-10T08:18:26;10.02;;;6.00;;
24873;SDS011;12945;42.648;23.370;2023-06-10T08:20:51;14.65;;;5.57;;
24873;SDS011;12945;42.648;23.370;2023-06-10T08:23:17;10.10;;;5.85;;
24873;SDS011;12945;42.648;23.370;2023-06-10T08:25:42;13.90;;;4.97;;
24873;SDS011;12945;42.648;23.370;2023-06-10T08:28:07;6.07;;;4.25;;
24873;SDS011;12945;42.648;23.370;2023-06-10T08:30:33;7.22;;;3.88;;
24873;SDS011;12945;42.648;23.370;2023-06-10T08:32:59;5.28;;;3.95;;
24873;SDS011;12945;42.648;23.370;2023-06-10T08:35:24;5.85;;;3.50;;
24873;SDS011;12945;42.648;23.370;2023-06-10T08:37:49;6.18;;;4.05;;
24873;SDS011;12945;42.648;23.370;2023-06-10T08:40:15;7.68;;;4.20;;
24873;SDS011;12945;42.648;23.370;2023-06-10T08:42:45;6.75;;;4.57;;
24873;SDS011;12945;42.648;23.370;2023-06-10T08:45:16;6.68;;;4.50;;
24873;SDS011;12945;42.648;23.370;2023-06-10T08:47:42;6.60;;;4.20;;
24873;SDS011;12945;42.648;23.370;2023-06-10T08:50:09;8.63;;;4.55;;
24873;SDS011;12945;42.648;23.370;2023-06-10T08:52:35;9.85;;;4.40;;
24873;SDS011;12945;42.648;23.370;2023-06-10T08:55:07;8.65;;;4.63;;
24873;SDS011;12945;42.648;23.370;2023-06-10T08:57:35;8.60;;;4.47;;
24873;SDS011;12945;42.648;23.370;2023-06-10T09:00:01;7.30;;;4.28;;
24873;SDS011;12945;42.648;23.370;2023-06-10T09:02:27;11.98;;;4.53;;
24873;SDS011;12945;42.648;23.370;2023-06-10T09:04:53;10.52;;;4.63;;
24873;SDS011;12945;42.648;23.370;2023-06-10T09:07:20;6.72;;;4.30;;
24873;SDS011;12945;42.648;23.370;2023-06-10T09:09:49;7.72;;;4.55;;
24873;SDS011;12945;42.648;23.370;2023-06-10T09:12:14;8.02;;;3.83;;
24873;SDS011;12945;42.648;23.370;2023-06-10T09:14:41;13.73;;;3.65;;
24873;SDS011;12945;42.648;23.370;2023-06-10T09:17:06;5.72;;;3.25;;
24873;SDS011;12945;42.648;23.370;2023-06-10T09:19:32;5.30;;;3.13;;
24873;SDS011;12945;42.648;23.370;2023-06-10T09:21:57;5.00;;;3.58;;
24873;SDS011;12945;42.648;23.370;2023-06-10T09:24:23;6.03;;;3.35;;
24873;SDS011;12945;42.648;23.370;2023-06-10T09:26:49;4.72;;;3.45;;
24873;SDS011;12945;42.648;23.370;2023-06-10T09:29:16;8.10;;;2.70;;
24873;SDS011;12945;42.648;23.370;2023-06-10T09:31:41;4.30;;;3.15;;
24873;SDS011;12945;42.648;23.370;2023-06-10T09:34:11;4.47;;;2.78;;
24873;SDS011;12945;42.648;23.370;2023-06-10T09:36:36;4.90;;;3.10;;
24873;SDS011;12945;42.648;23.370;2023-06-10T09:39:02;6.63;;;2.90;;
24873;SDS011;12945;42.648;23.370;2023-06-10T09:41:35;3.95;;;2.58;;
24873;SDS011;12945;42.648;23.370;2023-06-10T09:44:00;14.15;;;3.22;;
24873;SDS011;12945;42.648;23.370;2023-06-10T09:46:29;4.05;;;2.70;;
24873;SDS011;12945;42.648;23.370;2023-06-10T09:48:55;7.60;;;3.00;;
24873;SDS011;12945;42.648;23.370;2023-06-10T09:51:22;5.22;;;2.45;;
24873;SDS011;12945;42.648;23.370;2023-06-10T09:53:51;5.10;;;3.30;;
24873;SDS011;12945;42.648;23.370;2023-06-10T09:56:16;9.90;;;3.67;;
24873;SDS011;12945;42.648;23.370;2023-06-10T09:58:41;4.80;;;3.05;;
24873;SDS011;12945;42.648;23.370;2023-06-10T10:01:09;6.00;;;3.25;;
24873;SDS011;12945;42.648;23.370;2023-06-10T10:03:42;6.78;;;3.70;;
24873;SDS011;12945;42.648;23.370;2023-06-10T10:06:07;4.10;;;3.08;;
24873;SDS011;12945;42.648;23.370;2023-06-10T10:08:33;4.55;;;3.20;;
24873;SDS011;12945;42.648;23.370;2023-06-10T10:10:59;6.35;;;3.55;;
24873;SDS011;12945;42.648;23.370;2023-06-10T10:13:24;6.18;;;3.47;;
24873;SDS011;12945;42.648;23.370;2023-06-10T10:15:50;5.40;;;3.40;;
24873;SDS011;12945;42.648;23.370;2023-06-10T10:18:16;5.72;;;3.25;;
24873;SDS011;12945;42.648;23.370;2023-06-10T10:20:47;7.63;;;3.20;;
24873;SDS011;12945;42.648;23.370;2023-06-10T10:23:16;4.35;;;3.50;;
24873;SDS011;12945;42.648;23.370;2023-06-10T10:25:43;8.98;;;4.05;;
24873;SDS011;12945;42.648;23.370;2023-06-10T10:28:10;5.30;;;3.88;;
24873;SDS011;12945;42.648;23.370;2023-06-10T10:30:47;5.78;;;4.00;;
24873;SDS011;12945;42.648;23.370;2023-06-10T10:33:19;4.60;;;3.42;;
24873;SDS011;12945;42.648;23.370;2023-06-10T10:35:45;5.22;;;3.67;;
24873;SDS011;12945;42.648;23.370;2023-06-10T10:38:11;4.28;;;3.40;;
24873;SDS011;12945;42.648;23.370;2023-06-10T10:40:36;8.43;;;4.30;;
24873;SDS011;12945;42.648;23.370;2023-06-10T10:43:02;10.40;;;5.88;;
24873;SDS011;12945;42.648;23.370;2023-06-10T10:45:28;6.72;;;3.33;;
24873;SDS011;12945;42.648;23.370;2023-06-10T10:47:54;6.15;;;3.50;;
24873;SDS011;12945;42.648;23.370;2023-06-10T10:50:21;5.70;;;3.13;;
24873;SDS011;12945;42.648;23.370;2023-06-10T10:53:02;4.70;;;3.20;;
24873;SDS011;12945;42.648;23.370;2023-06-10T10:55:28;5.90;;;3.42;;
24873;SDS011;12945;42.648;23.370;2023-06-10T10:57:57;6.55;;;3.40;;
24873;SDS011;12945;42.648;23.370;2023-06-10T11:02:58;5.85;;;3.63;;
24873;SDS011;12945;42.648;23.370;2023-06-10T11:05:31;5.53;;;3.55;;
24873;SDS011;12945;42.648;23.370;2023-06-10T11:07:57;8.82;;;3.63;;
24873;SDS011;12945;42.648;23.370;2023-06-10T11:10:29;7.15;;;3.80;;
24873;SDS011;12945;42.648;23.370;2023-06-10T11:12:55;6.55;;;3.70;;
24873;SDS011;12945;42.648;23.370;2023-06-10T11:15:25;7.85;;;3.67;;
24873;SDS011;12945;42.648;23.370;2023-06-10T11:23:25;8.00;;;3.95;;
24873;SDS011;12945;42.648;23.370;2023-06-10T11:25:51;6.32;;;3.80;;
24873;SDS011;12945;42.648;23.370;2023-06-10T11:28:19;8.23;;;3.40;;
24873;SDS011;12945;42.648;23.370;2023-06-10T11:30:44;5.28;;;3.38;;
24873;SDS011;12945;42.648;23.370;2023-06-10T11:33:14;11.00;;;3.90;;
24873;SDS011;12945;42.648;23.370;2023-06-10T11:35:39;8.40;;;3.70;;
24873;SDS011;12945;42.648;23.370;2023-06-10T11:38:05;4.80;;;3.40;;
24873;SDS011;12945;42.648;23.370;2023-06-10T11:40:30;4.10;;;3.63;;
24873;SDS011;12945;42.648;23.370;2023-06-10T11:42:55;6.03;;;3.90;;
24873;SDS011;12945;42.648;23.370;2023-06-10T11:45:21;17.80;;;5.13;;
24873;SDS011;12945;42.648;23.370;2023-06-10T11:47:56;5.72;;;3.90;;
24873;SDS011;12945;42.648;23.370;2023-06-10T11:50:28;6.65;;;3.20;;
24873;SDS011;12945;42.648;23.370;2023-06-10T11:52:53;4.75;;;3.25;;
24873;SDS011;12945;42.648;23.370;2023-06-10T11:55:21;5.07;;;3.65;;
24873;SDS011;12945;42.648;23.370;2023-06-10T11:57:46;6.10;;;3.60;;
24873;SDS011;12945;42.648;23.370;2023-06-10T12:00:11;6.22;;;3.83;;
24873;SDS011;12945;42.648;23.370;2023-06-10T12:02:37;5.63;;;3.58;;
24873;SDS011;12945;42.648;23.370;2023-06-10T12:05:20;5.95;;;3.70;;
24873;SDS011;12945;42.648;23.370;2023-06-10T12:07:45;5.78;;;3.58;;
24873;SDS011;12945;42.648;23.370;2023-06-10T12:10:11;7.82;;;3.10;;
24873;SDS011;12945;42.648;23.370;2023-06-10T12:12:36;3.50;;;3.20;;
24873;SDS011;12945;42.648;23.370;2023-06-10T12:15:06;6.93;;;3.05;;
24873;SDS011;12945;42.648;23.370;2023-06-10T12:19:58;7.68;;;3.53;;
24873;SDS011;12945;42.648;23.370;2023-06-10T12:22:23;4.90;;;3.40;;
24873;SDS011;12945;42.648;23.370;2023-06-10T12:24:58;5.15;;;3.30;;
24873;SDS011;12945;42.648;23.370;2023-06-10T12:27:28;7.05;;;3.38;;
24873;SDS011;12945;42.648;23.370;2023-06-10T12:29:54;3.63;;;3.28;;
24873;SDS011;12945;42.648;23.370;2023-06-10T12:32:20;9.43;;;3.53;;
24873;SDS011;12945;42.648;23.370;2023-06-10T12:34:47;6.07;;;3.17;;
24873;SDS011;12945;42.648;23.370;2023-06-10T12:37:13;6.07;;;3.45;;
24873;SDS011;12945;42.648;23.370;2023-06-10T12:39:39;5.60;;;3.55;;
24873;SDS011;12945;42.648;23.370;2023-06-10T12:42:05;5.30;;;3.50;;
24873;SDS011;12945;42.648;23.370;2023-06-10T12:44:34;4.38;;;3.17;;
24873;SDS011;12945;42.648;23.370;2023-06-10T12:47:00;7.25;;;3.33;;
24873;SDS011;12945;42.648;23.370;2023-06-10T12:49:25;4.63;;;3.13;;
24873;SDS011;12945;42.648;23.370;2023-06-10T12:51:51;4.68;;;3.20;;
24873;SDS011;12945;42.648;23.370;2023-06-10T12:54:16;6.68;;;3.35;;
24873;SDS011;12945;42.648;23.370;2023-06-10T12:56:42;4.47;;;3.20;;
24873;SDS011;12945;42.648;23.370;2023-06-10T12:59:07;4.28;;;2.95;;
24873;SDS011;12945;42.648;23.370;2023-06-10T13:01:33;5.05;;;3.10;;
24873;SDS011;12945;42.648;23.370;2023-06-10T13:03:58;7.07;;;3.80;;
24873;SDS011;12945;42.648;23.370;2023-06-10T13:06:23;8.27;;;2.97;;
24873;SDS011;12945;42.648;23.370;2023-06-10T13:08:49;7.32;;;3.70;;
24873;SDS011;12945;42.648;23.370;2023-06-10T13:11:16;5.95;;;3.55;;
24873;SDS011;12945;42.648;23.370;2023-06-10T13:13:41;8.60;;;3.95;;
24873;SDS011;12945;42.648;23.370;2023-06-10T13:16:06;9.93;;;3.10;;
24873;SDS011;12945;42.648;23.370;2023-06-10T13:18:32;7.70;;;3.55;;
24873;SDS011;12945;42.648;23.370;2023-06-10T13:21:02;4.00;;;3.50;;
24873;SDS011;12945;42.648;23.370;2023-06-10T13:23:28;7.03;;;4.00;;
24873;SDS011;12945;42.648;23.370;2023-06-10T13:25:53;6.32;;;3.53;;
24873;SDS011;12945;42.648;23.370;2023-06-10T13:28:19;6.07;;;3.50;;
24873;SDS011;12945;42.648;23.370;2023-06-10T13:30:44;5.68;;;3.53;;
24873;SDS011;12945;42.648;23.370;2023-06-10T13:33:10;5.85;;;3.38;;
24873;SDS011;12945;42.648;23.370;2023-06-10T13:35:35;7.88;;;3.55;;
24873;SDS011;12945;42.648;23.370;2023-06-10T13:38:01;6.95;;;3.90;;
24873;SDS011;12945;42.648;23.370;2023-06-10T13:40:26;6.90;;;4.18;;
24873;SDS011;12945;42.648;23.370;2023-06-10T13:42:51;14.77;;;4.18;;
24873;SDS011;12945;42.648;23.370;2023-06-10T13:45:20;11.25;;;5.05;;
24873;SDS011;12945;42.648;23.370;2023-06-10T13:47:45;12.65;;;4.25;;
24873;SDS011;12945;42.648;23.370;2023-06-10T13:50:11;9.38;;;4.30;;
24873;SDS011;12945;42.648;23.370;2023-06-10T13:52:38;13.63;;;4.60;;
24873;SDS011;12945;42.648;23.370;2023-06-10T13:55:03;9.65;;;4.70;;
24873;SDS011;12945;42.648;23.370;2023-06-10T13:57:29;8.30;;;4.40;;
24873;SDS011;12945;42.648;23.370;2023-06-10T13:59:54;11.02;;;4.70;;
24873;SDS011;12945;42.648;23.370;2023-06-10T14:02:21;10.07;;;5.03;;
24873;SDS011;12945;42.648;23.370;2023-06-10T14:04:46;11.10;;;5.10;;
24873;SDS011;12945;42.648;23.370;2023-06-10T14:07:12;10.63;;;4.82;;
24873;SDS011;12945;42.648;23.370;2023-06-10T14:09:37;7.97;;;4.63;;
24873;SDS011;12945;42.648;23.370;2023-06-10T14:12:03;7.75;;;4.95;;
24873;SDS011;12945;42.648;23.370;2023-06-10T14:14:30;6.40;;;4.53;;
24873;SDS011;12945;42.648;23.370;2023-06-10T14:16:58;10.38;;;4.07;;
24873;SDS011;12945;42.648;23.370;2023-06-10T14:19:23;6.93;;;4.25;;
24873;SDS011;12945;42.648;23.370;2023-06-10T14:21:48;9.23;;;4.22;;
24873;SDS011;12945;42.648;23.370;2023-06-10T14:24:14;6.10;;;3.83;;
24873;SDS011;12945;42.648;23.370;2023-06-10T14:26:39;8.07;;;3.90;;
24873;SDS011;12945;42.648;23.370;2023-06-10T14:29:05;5.55;;;4.10;;